Back to Top

Language: 

My Weather Underground Personal Weather Station Historical Data with Graphs...

Delerius Weather Station Historical Data
Daily Summary for June 9, 2017 Units:  English    Metric   Both
« Previous Day
Next Day »
Daily Weekly Monthly Yearly Custom
  High: Low: Average:
Temperature: 70.0 °F 50.5 °F 59.9 °F
Dew Point: 52.3 °F 47.4 °F 50.2 °F
Humidity: 90 % 47 % 72 %
Wind Speed: 13.0 mph 0.0 mph 6 mph
Wind Gust: 23.0 mph - -
Wind:- - WSW
Pressure: 29.92 in 29.62 in -
Precipitation: 0.00 in    
Historical Graphs
 
 
Tabular Data for June 9, 2017
Time Temperature Dew Point Pressure Wind Wind Speed Wind Gust Humidity Rainfall Rate (Hourly) solar Conditions
00:04 55.6 °F 50.8 °F 29.64 in SW 6.0 mph 12.0 mph 84 % 0.00 in 0 W/m2
00:09 55.4 °F 50.6 °F 29.64 in SW 4.0 mph 10.0 mph 84 % 0.00 in 0 W/m2
00:14 55.2 °F 50.5 °F 29.64 in WSW 2.0 mph 6.0 mph 84 % 0.00 in 0 W/m2
00:19 55.0 °F 50.3 °F 29.64 in WSW 2.0 mph 6.0 mph 84 % 0.00 in 0 W/m2
00:24 54.9 °F 50.1 °F 29.64 in WSW 2.0 mph 6.0 mph 84 % 0.00 in 0 W/m2
00:29 54.7 °F 49.9 °F 29.64 in SW 3.0 mph 8.0 mph 84 % 0.00 in 0 W/m2
00:34 54.7 °F 50.3 °F 29.64 in SSW 4.0 mph 8.0 mph 85 % 0.00 in 0 W/m2
00:39 54.5 °F 50.1 °F 29.64 in SSW 4.0 mph 8.0 mph 85 % 0.00 in 0 W/m2
00:44 54.3 °F 49.9 °F 29.63 in SSW 4.0 mph 8.0 mph 85 % 0.00 in 0 W/m2
00:49 54.1 °F 49.7 °F 29.63 in SSW 5.0 mph 8.0 mph 85 % 0.00 in 0 W/m2
00:54 54.1 °F 50.0 °F 29.63 in SSW 5.0 mph 7.0 mph 86 % 0.00 in 0 W/m2
00:59 54.0 °F 49.9 °F 29.62 in SSW 4.0 mph 8.0 mph 86 % 0.00 in 0 W/m2
01:04 54.0 °F 49.9 °F 29.62 in SSW 4.0 mph 11.0 mph 86 % 0.00 in 0 W/m2
01:09 54.0 °F 49.9 °F 29.62 in SSW 6.0 mph 12.0 mph 86 % 0.00 in 0 W/m2
01:14 54.0 °F 49.9 °F 29.63 in SW 5.0 mph 12.0 mph 86 % 0.00 in 0 W/m2
01:19 54.0 °F 49.9 °F 29.63 in SW 4.0 mph 9.0 mph 86 % 0.00 in 0 W/m2
01:20 54.0 °F 49.9 °F 29.62 in SW 4.0 mph 9.0 mph 86 % 0.00 in 0 W/m2
01:25 54.0 °F 49.9 °F 29.63 in SW 3.0 mph 9.0 mph 86 % 0.00 in 0 W/m2
01:27 54.0 °F 49.9 °F 29.62 in SW 3.0 mph 9.0 mph 86 % 0.00 in 0 W/m2
01:32 54.0 °F 49.9 °F 29.63 in SSW 3.0 mph 9.0 mph 86 % 0.00 in 0 W/m2
01:37 54.0 °F 49.9 °F 29.62 in South 3.0 mph 9.0 mph 86 % 0.00 in 0 W/m2
01:42 54.0 °F 49.9 °F 29.62 in South 3.0 mph 6.0 mph 86 % 0.00 in 0 W/m2
01:47 53.8 °F 49.7 °F 29.62 in SSE 2.0 mph 6.0 mph 86 % 0.00 in 0 W/m2
01:52 53.4 °F 49.3 °F 29.62 in SE 2.0 mph 6.0 mph 86 % 0.00 in 0 W/m2
01:57 53.2 °F 49.5 °F 29.62 in ESE 2.0 mph 6.0 mph 87 % 0.00 in 0 W/m2
02:02 53.1 °F 49.3 °F 29.62 in East 1.0 mph 4.0 mph 87 % 0.00 in 0 W/m2
02:07 52.9 °F 49.1 °F 29.63 in SE 1.0 mph 4.0 mph 87 % 0.00 in 0 W/m2
02:12 52.5 °F 49.1 °F 29.63 in ESE 1.0 mph 4.0 mph 88 % 0.00 in 0 W/m2
02:17 52.5 °F 49.1 °F 29.63 in NNE 1.0 mph 4.0 mph 88 % 0.00 in 0 W/m2
02:22 52.3 °F 48.9 °F 29.63 in NNE 1.0 mph 5.0 mph 88 % 0.00 in 0 W/m2
02:27 52.2 °F 48.7 °F 29.63 in NNE 1.0 mph 5.0 mph 88 % 0.00 in 0 W/m2
02:32 52.0 °F 48.8 °F 29.64 in NE 2.0 mph 5.0 mph 89 % 0.00 in 0 W/m2
02:37 51.8 °F 48.7 °F 29.64 in ENE 2.0 mph 5.0 mph 89 % 0.00 in 0 W/m2
02:42 51.8 °F 48.7 °F 29.63 in ENE 3.0 mph 5.0 mph 89 % 0.00 in 0 W/m2
02:47 51.6 °F 48.8 °F 29.64 in ENE 3.0 mph 6.0 mph 90 % 0.00 in 0 W/m2
02:52 51.6 °F 48.8 °F 29.64 in NE 2.0 mph 6.0 mph 90 % 0.00 in 0 W/m2
02:57 51.6 °F 48.8 °F 29.64 in NE 1.0 mph 5.0 mph 90 % 0.00 in 0 W/m2
03:02 51.8 °F 49.0 °F 29.64 in ENE 2.0 mph 7.0 mph 90 % 0.00 in 0 W/m2
03:07 51.8 °F 49.0 °F 29.64 in East 1.0 mph 7.0 mph 90 % 0.00 in 0 W/m2
03:12 51.8 °F 49.0 °F 29.64 in East 1.0 mph 5.0 mph 90 % 0.00 in 0 W/m2
03:17 51.8 °F 48.7 °F 29.64 in East 1.0 mph 5.0 mph 89 % 0.00 in 0 W/m2
03:22 51.6 °F 48.5 °F 29.64 in East 1.0 mph 5.0 mph 89 % 0.00 in 0 W/m2
03:28 51.4 °F 48.3 °F 29.64 in Calm   4.0 mph 89 % 0.00 in 0 W/m2
03:33 51.3 °F 48.4 °F 29.64 in South 1.0 mph 6.0 mph 90 % 0.00 in 0 W/m2
03:38 51.3 °F 48.1 °F 29.64 in South 1.0 mph 7.0 mph 89 % 0.00 in 0 W/m2
03:43 51.1 °F 48.0 °F 29.64 in Calm   7.0 mph 89 % 0.00 in 0 W/m2
03:48 50.9 °F 48.1 °F 29.64 in Calm   4.0 mph 90 % 0.00 in 0 W/m2
03:53 50.9 °F 48.1 °F 29.64 in Calm   5.0 mph 90 % 0.00 in 0 W/m2
03:58 50.7 °F 47.9 °F 29.64 in SW 1.0 mph 5.0 mph 90 % 0.00 in 0 W/m2
04:03 50.7 °F 47.9 °F 29.64 in SW 1.0 mph 6.0 mph 90 % 0.00 in 0 W/m2
04:08 50.7 °F 47.9 °F 29.64 in South 1.0 mph 6.0 mph 90 % 0.00 in 0 W/m2
04:13 50.7 °F 47.9 °F 29.64 in Calm   5.0 mph 90 % 0.00 in 0 W/m2
04:18 50.7 °F 47.6 °F 29.65 in Calm   5.0 mph 89 % 0.00 in 0 W/m2
04:23 50.5 °F 47.4 °F 29.65 in Calm   2.0 mph 89 % 0.00 in 0 W/m2
04:28 50.5 °F 47.7 °F 29.65 in Calm   2.0 mph 90 % 0.00 in 0 W/m2
04:33 50.7 °F 47.9 °F 29.65 in WSW 1.0 mph 6.0 mph 90 % 0.00 in 0 W/m2
04:38 50.9 °F 48.1 °F 29.65 in WSW 1.0 mph 6.0 mph 90 % 0.00 in 5 W/m2
04:43 51.1 °F 48.0 °F 29.64 in West 1.0 mph 5.0 mph 89 % 0.00 in 5 W/m2
04:48 50.9 °F 47.8 °F 29.65 in West 2.0 mph 8.0 mph 89 % 0.00 in 7 W/m2
04:53 51.1 °F 48.0 °F 29.65 in WSW 2.0 mph 8.0 mph 89 % 0.00 in 9 W/m2
04:58 51.3 °F 48.1 °F 29.66 in WSW 2.0 mph 8.0 mph 89 % 0.00 in 11 W/m2
05:03 51.4 °F 48.3 °F 29.66 in WSW 3.0 mph 7.0 mph 89 % 0.00 in 12 W/m2
05:08 51.4 °F 48.3 °F 29.66 in South 2.0 mph 7.0 mph 89 % 0.00 in 18 W/m2
05:13 51.4 °F 48.3 °F 29.66 in South 2.0 mph 6.0 mph 89 % 0.00 in 28 W/m2
05:18 51.3 °F 48.1 °F 29.66 in South 1.0 mph 5.0 mph 89 % 0.00 in 33 W/m2
05:23 51.3 °F 48.1 °F 29.66 in South 2.0 mph 6.0 mph 89 % 0.00 in 32 W/m2
05:28 51.3 °F 48.1 °F 29.66 in South 3.0 mph 8.0 mph 89 % 0.00 in 32 W/m2
05:33 51.3 °F 48.4 °F 29.66 in SSW 4.0 mph 8.0 mph 90 % 0.00 in 63 W/m2
05:39 51.4 °F 48.6 °F 29.66 in SSW 3.0 mph 7.0 mph 90 % 0.00 in 65 W/m2
05:44 51.4 °F 48.6 °F 29.66 in SSW 1.0 mph 7.0 mph 90 % 0.00 in 58 W/m2
05:50 51.6 °F 48.8 °F 29.66 in SW 2.0 mph 7.0 mph 90 % 0.00 in 54 W/m2
05:55 52.0 °F 49.1 °F 29.66 in SW 4.0 mph 7.0 mph 90 % 0.00 in 105 W/m2
06:00 52.2 °F 49.3 °F 29.66 in SW 3.0 mph 7.0 mph 90 % 0.00 in 130 W/m2
06:05 52.3 °F 49.5 °F 29.66 in Calm   2.0 mph 90 % 0.00 in 114 W/m2
06:10 52.7 °F 49.8 °F 29.67 in SW 1.0 mph 4.0 mph 90 % 0.00 in 70 W/m2
06:15 52.9 °F 49.7 °F 29.67 in SW 3.0 mph 9.0 mph 89 % 0.00 in 39 W/m2
06:20 53.1 °F 49.6 °F 29.67 in SW 5.0 mph 11.0 mph 88 % 0.00 in 33 W/m2
06:25 53.1 °F 49.6 °F 29.67 in SW 6.0 mph 11.0 mph 88 % 0.00 in 33 W/m2
06:30 53.1 °F 49.6 °F 29.67 in SW 7.0 mph 13.0 mph 88 % 0.00 in 58 W/m2
06:31 53.1 °F 49.6 °F 29.67 in SW 7.0 mph 13.0 mph 88 % 0.00 in 62 W/m2
06:36 53.1 °F 49.6 °F 29.67 in SW 8.0 mph 13.0 mph 88 % 0.00 in 67 W/m2
06:41 53.2 °F 49.8 °F 29.67 in SW 7.0 mph 12.0 mph 88 % 0.00 in 74 W/m2
06:46 53.4 °F 50.0 °F 29.67 in SW 8.0 mph 14.0 mph 88 % 0.00 in 104 W/m2
06:51 53.8 °F 50.3 °F 29.67 in SW 8.0 mph 14.0 mph 88 % 0.00 in 90 W/m2
06:56 54.0 °F 50.5 °F 29.67 in SW 7.0 mph 14.0 mph 88 % 0.00 in 104 W/m2
07:01 54.1 °F 50.4 °F 29.67 in SW 7.0 mph 13.0 mph 87 % 0.00 in 125 W/m2
07:06 54.7 °F 50.6 °F 29.67 in SW 9.0 mph 16.0 mph 86 % 0.00 in 125 W/m2
07:11 55.0 °F 50.6 °F 29.67 in SW 9.0 mph 16.0 mph 85 % 0.00 in 135 W/m2
07:16 55.2 °F 50.8 °F 29.68 in SW 8.0 mph 14.0 mph 85 % 0.00 in 149 W/m2
07:21 55.4 °F 51.0 °F 29.68 in SW 9.0 mph 14.0 mph 85 % 0.00 in 309 W/m2
07:26 55.8 °F 51.0 °F 29.68 in SW 8.0 mph 14.0 mph 84 % 0.00 in 329 W/m2
07:31 56.1 °F 51.4 °F 29.68 in SW 8.0 mph 14.0 mph 84 % 0.00 in 373 W/m2
07:36 56.3 °F 51.2 °F 29.68 in SW 9.0 mph 14.0 mph 83 % 0.00 in 144 W/m2
07:41 56.5 °F 51.1 °F 29.68 in SW 10.0 mph 14.0 mph 82 % 0.00 in 230 W/m2
07:46 56.7 °F 51.2 °F 29.68 in SW 10.0 mph 16.0 mph 82 % 0.00 in 381 W/m2
07:51 57.0 °F 51.2 °F 29.68 in SW 9.0 mph 16.0 mph 81 % 0.00 in 179 W/m2
07:56 57.4 °F 51.3 °F 29.69 in WSW 9.0 mph 18.0 mph 80 % 0.00 in 221 W/m2
08:01 57.4 °F 50.9 °F 29.69 in WSW 9.0 mph 18.0 mph 79 % 0.00 in 146 W/m2
08:06 57.4 °F 50.9 °F 29.69 in WSW 7.0 mph 12.0 mph 79 % 0.00 in 139 W/m2
08:11 57.4 °F 50.9 °F 29.69 in SW 7.0 mph 15.0 mph 79 % 0.00 in 162 W/m2
08:16 57.2 °F 50.7 °F 29.69 in SW 8.0 mph 15.0 mph 79 % 0.00 in 297 W/m2
08:21 57.4 °F 50.9 °F 29.69 in SW 8.0 mph 15.0 mph 79 % 0.00 in 163 W/m2
08:26 57.6 °F 51.1 °F 29.69 in WSW 8.0 mph 15.0 mph 79 % 0.00 in 218 W/m2
08:31 57.9 °F 51.4 °F 29.69 in WSW 7.0 mph 13.0 mph 79 % 0.00 in 199 W/m2
08:37 58.3 °F 51.1 °F 29.70 in SW 8.0 mph 19.0 mph 77 % 0.00 in 253 W/m2
08:42 58.3 °F 51.1 °F 29.69 in SW 10.0 mph 19.0 mph 77 % 0.00 in 309 W/m2
08:47 58.6 °F 51.4 °F 29.69 in SW 10.0 mph 19.0 mph 77 % 0.00 in 311 W/m2
08:52 58.8 °F 51.6 °F 29.70 in SW 9.0 mph 18.0 mph 77 % 0.00 in 178 W/m2
08:57 58.6 °F 50.4 °F 29.70 in WSW 10.0 mph 20.0 mph 74 % 0.00 in 178 W/m2
09:02 58.6 °F 51.1 °F 29.70 in WSW 9.0 mph 20.0 mph 76 % 0.00 in 696 W/m2
09:07 59.0 °F 51.1 °F 29.70 in WSW 9.0 mph 16.0 mph 75 % 0.00 in 765 W/m2
09:12 59.5 °F 50.9 °F 29.71 in WSW 11.0 mph 21.0 mph 73 % 0.00 in 768 W/m2
09:17 59.7 °F 49.9 °F 29.71 in WSW 13.0 mph 21.0 mph 70 % 0.00 in 418 W/m2
09:22 59.7 °F 49.9 °F 29.70 in WSW 12.0 mph 19.0 mph 70 % 0.00 in 241 W/m2
09:27 59.5 °F 49.7 °F 29.70 in WSW 10.0 mph 18.0 mph 70 % 0.00 in 812 W/m2
09:32 60.3 °F 50.8 °F 29.70 in WSW 10.0 mph 18.0 mph 71 % 0.00 in 779 W/m2
09:37 60.6 °F 50.4 °F 29.71 in WSW 10.0 mph 18.0 mph 69 % 0.00 in 740 W/m2
09:42 60.8 °F 49.8 °F 29.70 in WSW 11.0 mph 19.0 mph 67 % 0.00 in 742 W/m2
09:47 60.8 °F 49.8 °F 29.71 in WSW 12.0 mph 19.0 mph 67 % 0.00 in 176 W/m2
09:52 60.8 °F 49.8 °F 29.71 in WSW 12.0 mph 20.0 mph 67 % 0.00 in 828 W/m2
09:57 61.2 °F 50.5 °F 29.70 in WSW 11.0 mph 20.0 mph 68 % 0.00 in 752 W/m2
10:02 61.5 °F 50.5 °F 29.70 in SW 11.0 mph 18.0 mph 67 % 0.00 in 724 W/m2
10:07 62.1 °F 51.0 °F 29.71 in WSW 11.0 mph 16.0 mph 67 % 0.00 in 731 W/m2
10:12 62.6 °F 51.1 °F 29.71 in WSW 11.0 mph 22.0 mph 66 % 0.00 in 747 W/m2
10:17 62.8 °F 50.4 °F 29.71 in WSW 11.0 mph 22.0 mph 64 % 0.00 in 809 W/m2
10:22 63.1 °F 50.8 °F 29.71 in West 11.0 mph 21.0 mph 64 % 0.00 in 907 W/m2
10:27 63.0 °F 50.2 °F 29.71 in West 11.0 mph 22.0 mph 63 % 0.00 in 186 W/m2
10:32 62.4 °F 50.1 °F 29.72 in West 10.0 mph 22.0 mph 64 % 0.00 in 265 W/m2
10:37 62.4 °F 50.5 °F 29.72 in WSW 8.0 mph 15.0 mph 65 % 0.00 in 262 W/m2
10:42 62.8 °F 50.8 °F 29.72 in WSW 8.0 mph 15.0 mph 65 % 0.00 in 849 W/m2
10:47 63.1 °F 50.3 °F 29.72 in WSW 8.0 mph 16.0 mph 63 % 0.00 in 868 W/m2
10:52 63.7 °F 50.0 °F 29.72 in WSW 9.0 mph 19.0 mph 61 % 0.00 in 847 W/m2
10:57 64.2 °F 50.9 °F 29.72 in WSW 9.0 mph 19.0 mph 62 % 0.00 in 958 W/m2
11:02 64.9 °F 50.7 °F 29.72 in WSW 9.0 mph 14.0 mph 60 % 0.00 in 965 W/m2
11:07 65.3 °F 51.1 °F 29.72 in WSW 8.0 mph 14.0 mph 60 % 0.00 in 965 W/m2
11:12 65.7 °F 50.5 °F 29.72 in West 9.0 mph 15.0 mph 58 % 0.00 in 918 W/m2
11:17 65.5 °F 49.8 °F 29.72 in West 10.0 mph 15.0 mph 57 % 0.00 in 274 W/m2
11:22 64.6 °F 49.9 °F 29.72 in WSW 11.0 mph 16.0 mph 59 % 0.00 in 1041 W/m2
11:27 64.6 °F 50.4 °F 29.72 in WSW 11.0 mph 16.0 mph 60 % 0.00 in 1049 W/m2
11:32 64.8 °F 50.1 °F 29.72 in WSW 11.0 mph 20.0 mph 59 % 0.00 in 399 W/m2
11:37 64.6 °F 50.4 °F 29.73 in SW 11.0 mph 20.0 mph 60 % 0.00 in 404 W/m2
11:42 64.9 °F 49.8 °F 29.73 in WSW 10.0 mph 16.0 mph 58 % 0.00 in 241 W/m2
11:47 65.5 °F 50.8 °F 29.73 in West 10.0 mph 16.0 mph 59 % 0.00 in 951 W/m2
11:53 65.7 °F 50.0 °F 29.73 in West 10.0 mph 16.0 mph 57 % 0.00 in 900 W/m2
11:58 66.0 °F 49.9 °F 29.73 in West 9.0 mph 15.0 mph 56 % 0.00 in 353 W/m2
12:03 65.7 °F 49.5 °F 29.73 in West 11.0 mph 20.0 mph 56 % 0.00 in 320 W/m2
12:08 65.1 °F 50.0 °F 29.74 in West 12.0 mph 20.0 mph 58 % 0.00 in 339 W/m2
12:13 64.6 °F 49.5 °F 29.74 in WSW 11.0 mph 23.0 mph 58 % 0.00 in 200 W/m2
12:18 64.0 °F 50.3 °F 29.74 in West 11.0 mph 23.0 mph 61 % 0.00 in 192 W/m2
12:23 63.7 °F 50.8 °F 29.75 in WNW 11.0 mph 19.0 mph 63 % 0.00 in 137 W/m2
12:24 63.7 °F 50.8 °F 29.75 in WNW 10.0 mph 19.0 mph 63 % 0.00 in 135 W/m2
12:29 63.1 °F 51.2 °F 29.75 in WNW 10.0 mph 19.0 mph 65 % 0.00 in 167 W/m2
12:34 63.0 °F 51.4 °F 29.75 in WNW 9.0 mph 15.0 mph 66 % 0.00 in 258 W/m2
12:39 63.0 °F 51.4 °F 29.75 in WNW 8.0 mph 15.0 mph 66 % 0.00 in 311 W/m2
12:44 63.0 °F 51.4 °F 29.75 in WNW 8.0 mph 14.0 mph 66 % 0.00 in 330 W/m2
12:49 63.1 °F 51.2 °F 29.75 in WNW 8.0 mph 13.0 mph 65 % 0.00 in 388 W/m2
12:54 63.7 °F 51.7 °F 29.75 in WNW 7.0 mph 13.0 mph 65 % 0.00 in 346 W/m2
12:59 64.0 °F 51.6 °F 29.76 in West 7.0 mph 16.0 mph 64 % 0.00 in 302 W/m2
13:04 64.0 °F 51.6 °F 29.76 in West 9.0 mph 18.0 mph 64 % 0.00 in 1204 W/m2
13:09 64.8 °F 52.3 °F 29.76 in West 9.0 mph 18.0 mph 64 % 0.00 in 524 W/m2
13:14 65.1 °F 51.3 °F 29.76 in West 8.0 mph 14.0 mph 61 % 0.00 in 353 W/m2
13:19 64.9 °F 51.6 °F 29.76 in West 8.0 mph 15.0 mph 62 % 0.00 in 183 W/m2
13:24 64.6 °F 51.3 °F 29.77 in West 10.0 mph 19.0 mph 62 % 0.00 in 251 W/m2
13:29 64.2 °F 49.6 °F 29.77 in WNW 12.0 mph 22.0 mph 59 % 0.00 in 214 W/m2
13:34 63.9 °F 49.2 °F 29.77 in WNW 12.0 mph 22.0 mph 59 % 0.00 in 174 W/m2
13:39 63.1 °F 49.0 °F 29.77 in West 12.0 mph 20.0 mph 60 % 0.00 in 142 W/m2
13:44 62.8 °F 49.1 °F 29.78 in West 12.0 mph 19.0 mph 61 % 0.00 in 199 W/m2
13:49 62.6 °F 49.8 °F 29.77 in West 10.0 mph 16.0 mph 63 % 0.00 in 257 W/m2
13:54 62.8 °F 49.1 °F 29.78 in West 10.0 mph 20.0 mph 61 % 0.00 in 272 W/m2
13:59 63.0 °F 49.7 °F 29.78 in West 9.0 mph 20.0 mph 62 % 0.00 in 367 W/m2
14:04 63.3 °F 50.1 °F 29.78 in West 6.0 mph 12.0 mph 62 % 0.00 in 478 W/m2
14:09 64.0 °F 50.3 °F 29.78 in West 7.0 mph 16.0 mph 61 % 0.00 in 471 W/m2
14:14 64.8 °F 49.2 °F 29.78 in West 10.0 mph 18.0 mph 57 % 0.00 in 418 W/m2
14:20 65.3 °F 49.7 °F 29.78 in West 10.0 mph 19.0 mph 57 % 0.00 in 1078 W/m2
14:25 66.4 °F 50.7 °F 29.78 in West 10.0 mph 20.0 mph 57 % 0.00 in 949 W/m2
14:30 66.9 °F 51.7 °F 29.78 in West 10.0 mph 20.0 mph 58 % 0.00 in 186 W/m2
14:35 67.3 °F 51.0 °F 29.79 in West 10.0 mph 20.0 mph 56 % 0.00 in 868 W/m2
14:40 67.5 °F 50.7 °F 29.79 in WNW 10.0 mph 20.0 mph 55 % 0.00 in 976 W/m2
14:45 67.8 °F 50.6 °F 29.79 in WNW 10.0 mph 18.0 mph 54 % 0.00 in 919 W/m2
14:50 68.0 °F 50.7 °F 29.79 in WNW 10.0 mph 18.0 mph 54 % 0.00 in 872 W/m2
14:55 68.2 °F 49.9 °F 29.80 in West 11.0 mph 19.0 mph 52 % 0.00 in 879 W/m2
15:00 68.2 °F 50.4 °F 29.80 in West 11.0 mph 19.0 mph 53 % 0.00 in 882 W/m2
15:05 68.5 °F 50.2 °F 29.80 in West 10.0 mph 16.0 mph 52 % 0.00 in 891 W/m2
15:10 68.2 °F 49.4 °F 29.80 in West 10.0 mph 16.0 mph 51 % 0.00 in 373 W/m2
15:15 68.0 °F 50.7 °F 29.80 in West 9.0 mph 15.0 mph 54 % 0.00 in 295 W/m2
15:20 68.0 °F 50.2 °F 29.80 in West 8.0 mph 14.0 mph 53 % 0.00 in 1021 W/m2
15:25 68.2 °F 50.4 °F 29.80 in West 9.0 mph 14.0 mph 53 % 0.00 in 211 W/m2
15:30 67.8 °F 50.1 °F 29.80 in West 9.0 mph 16.0 mph 53 % 0.00 in 854 W/m2
15:35 68.4 °F 50.0 °F 29.80 in West 9.0 mph 18.0 mph 52 % 0.00 in 823 W/m2
15:40 68.5 °F 49.2 °F 29.80 in West 10.0 mph 18.0 mph 50 % 0.00 in 793 W/m2
15:45 68.5 °F 49.7 °F 29.80 in West 9.0 mph 18.0 mph 51 % 0.00 in 780 W/m2
15:50 69.1 °F 49.1 °F 29.80 in West 9.0 mph 14.0 mph 49 % 0.00 in 826 W/m2
15:55 69.1 °F 49.7 °F 29.81 in West 9.0 mph 15.0 mph 50 % 0.00 in 810 W/m2
16:00 69.3 °F 48.2 °F 29.80 in West 9.0 mph 15.0 mph 47 % 0.00 in 809 W/m2
16:05 69.4 °F 48.3 °F 29.81 in West 9.0 mph 18.0 mph 47 % 0.00 in 831 W/m2
16:10 70.0 °F 48.8 °F 29.81 in WNW 9.0 mph 18.0 mph 47 % 0.00 in 246 W/m2
16:15 69.6 °F 49.1 °F 29.81 in West 9.0 mph 18.0 mph 48 % 0.00 in 817 W/m2
16:21 69.4 °F 48.9 °F 29.81 in West 8.0 mph 16.0 mph 48 % 0.00 in 197 W/m2
16:26 69.3 °F 48.7 °F 29.81 in West 8.0 mph 16.0 mph 48 % 0.00 in 213 W/m2
16:31 69.3 °F 48.7 °F 29.81 in WNW 8.0 mph 16.0 mph 48 % 0.00 in 156 W/m2
16:36 69.1 °F 49.1 °F 29.82 in WNW 8.0 mph 18.0 mph 49 % 0.00 in 188 W/m2
16:41 68.7 °F 48.8 °F 29.82 in WNW 7.0 mph 18.0 mph 49 % 0.00 in 211 W/m2
16:46 68.9 °F 49.5 °F 29.82 in WNW 5.0 mph 14.0 mph 50 % 0.00 in 221 W/m2
16:51 68.7 °F 48.8 °F 29.82 in West 8.0 mph 15.0 mph 49 % 0.00 in 729 W/m2
16:56 68.7 °F 49.3 °F 29.82 in West 10.0 mph 15.0 mph 50 % 0.00 in 675 W/m2
17:01 69.1 °F 50.2 °F 29.83 in West 9.0 mph 15.0 mph 51 % 0.00 in 232 W/m2
17:06 69.3 °F 50.4 °F 29.83 in WNW 9.0 mph 16.0 mph 51 % 0.00 in 635 W/m2
17:11 69.6 °F 51.2 °F 29.83 in West 7.0 mph 16.0 mph 52 % 0.00 in 610 W/m2
17:16 70.0 °F 49.9 °F 29.83 in WNW 7.0 mph 16.0 mph 49 % 0.00 in 171 W/m2
17:21 69.6 °F 50.2 °F 29.83 in WNW 9.0 mph 16.0 mph 50 % 0.00 in 531 W/m2
17:26 69.4 °F 51.0 °F 29.83 in WNW 9.0 mph 15.0 mph 52 % 0.00 in 503 W/m2
17:31 69.3 °F 50.9 °F 29.83 in WNW 9.0 mph 16.0 mph 52 % 0.00 in 462 W/m2
17:36 69.3 °F 51.4 °F 29.83 in WNW 10.0 mph 16.0 mph 53 % 0.00 in 357 W/m2
17:41 69.1 °F 51.2 °F 29.83 in WNW 9.0 mph 16.0 mph 53 % 0.00 in 390 W/m2
17:46 69.1 °F 51.2 °F 29.84 in WNW 9.0 mph 18.0 mph 53 % 0.00 in 348 W/m2
17:51 68.5 °F 51.2 °F 29.84 in West 9.0 mph 18.0 mph 54 % 0.00 in 304 W/m2
17:56 68.2 °F 51.9 °F 29.84 in West 8.0 mph 14.0 mph 56 % 0.00 in 357 W/m2
18:01 68.0 °F 51.7 °F 29.84 in West 8.0 mph 14.0 mph 56 % 0.00 in 323 W/m2
18:06 68.0 °F 51.2 °F 29.84 in West 9.0 mph 13.0 mph 55 % 0.00 in 320 W/m2
18:07 68.0 °F 51.2 °F 29.84 in West 9.0 mph 13.0 mph 55 % 0.00 in 338 W/m2
18:12 68.0 °F 51.2 °F 29.84 in WNW 9.0 mph 13.0 mph 55 % 0.00 in 320 W/m2
18:17 68.2 °F 51.9 °F 29.84 in WNW 7.0 mph 13.0 mph 56 % 0.00 in 304 W/m2
18:23 68.2 °F 51.9 °F 29.84 in WNW 8.0 mph 13.0 mph 56 % 0.00 in 304 W/m2
18:28 67.8 °F 51.5 °F 29.84 in WNW 8.0 mph 13.0 mph 56 % 0.00 in 251 W/m2
18:33 67.6 °F 51.9 °F 29.84 in WNW 8.0 mph 14.0 mph 57 % 0.00 in 251 W/m2
18:38 67.6 °F 51.9 °F 29.84 in WNW 8.0 mph 14.0 mph 57 % 0.00 in 214 W/m2
18:43 67.3 °F 51.0 °F 29.85 in WNW 8.0 mph 13.0 mph 56 % 0.00 in 199 W/m2
18:48 66.7 °F 51.0 °F 29.85 in West 8.0 mph 13.0 mph 57 % 0.00 in 176 W/m2
18:53 66.6 °F 51.8 °F 29.85 in West 7.0 mph 13.0 mph 59 % 0.00 in 179 W/m2
18:58 66.4 °F 51.2 °F 29.85 in West 8.0 mph 15.0 mph 58 % 0.00 in 171 W/m2
19:03 66.2 °F 51.4 °F 29.85 in West 7.0 mph 15.0 mph 59 % 0.00 in 151 W/m2
19:08 66.2 °F 51.9 °F 29.85 in West 5.0 mph 10.0 mph 60 % 0.00 in 139 W/m2
19:13 66.0 °F 51.7 °F 29.86 in West 6.0 mph 12.0 mph 60 % 0.00 in 139 W/m2
19:18 65.8 °F 52.0 °F 29.86 in West 6.0 mph 12.0 mph 61 % 0.00 in 135 W/m2
19:23 65.7 °F 51.8 °F 29.86 in WNW 5.0 mph 11.0 mph 61 % 0.00 in 127 W/m2
19:28 65.5 °F 51.7 °F 29.86 in WNW 6.0 mph 11.0 mph 61 % 0.00 in 113 W/m2
19:33 65.1 °F 51.8 °F 29.86 in WNW 6.0 mph 11.0 mph 62 % 0.00 in 104 W/m2
19:38 64.9 °F 51.6 °F 29.86 in WNW 7.0 mph 13.0 mph 62 % 0.00 in 97 W/m2
19:43 64.8 °F 51.9 °F 29.87 in WNW 6.0 mph 13.0 mph 63 % 0.00 in 102 W/m2
19:48 64.6 °F 51.3 °F 29.87 in WNW 7.0 mph 11.0 mph 62 % 0.00 in 98 W/m2
19:53 64.4 °F 51.5 °F 29.87 in WNW 6.0 mph 11.0 mph 63 % 0.00 in 83 W/m2
19:58 64.2 °F 51.4 °F 29.87 in WNW 6.0 mph 10.0 mph 63 % 0.00 in 74 W/m2
20:03 64.0 °F 51.6 °F 29.87 in WNW 7.0 mph 11.0 mph 64 % 0.00 in 69 W/m2
20:08 63.9 °F 51.9 °F 29.87 in WNW 6.0 mph 11.0 mph 65 % 0.00 in 65 W/m2
20:13 63.7 °F 51.7 °F 29.87 in WNW 5.0 mph 8.0 mph 65 % 0.00 in 58 W/m2
20:18 63.3 °F 51.3 °F 29.87 in WNW 5.0 mph 8.0 mph 65 % 0.00 in 53 W/m2
20:23 63.1 °F 51.6 °F 29.87 in WNW 5.0 mph 9.0 mph 66 % 0.00 in 47 W/m2
20:28 63.0 °F 51.8 °F 29.87 in West 4.0 mph 9.0 mph 67 % 0.00 in 47 W/m2
20:33 62.8 °F 51.7 °F 29.87 in West 3.0 mph 7.0 mph 67 % 0.00 in 51 W/m2
20:38 62.6 °F 51.9 °F 29.88 in West 2.0 mph 5.0 mph 68 % 0.00 in 53 W/m2
20:43 62.4 °F 52.1 °F 29.88 in West 2.0 mph 5.0 mph 69 % 0.00 in 46 W/m2
20:48 62.2 °F 51.9 °F 29.88 in West 1.0 mph 5.0 mph 69 % 0.00 in 37 W/m2
20:54 62.1 °F 52.2 °F 29.87 in West 2.0 mph 6.0 mph 70 % 0.00 in 32 W/m2
20:59 61.9 °F 52.0 °F 29.88 in West 3.0 mph 6.0 mph 70 % 0.00 in 25 W/m2
21:04 61.7 °F 51.8 °F 29.88 in West 3.0 mph 7.0 mph 70 % 0.00 in 18 W/m2
21:09 61.3 °F 51.9 °F 29.88 in West 4.0 mph 7.0 mph 71 % 0.00 in 14 W/m2
21:14 61.2 °F 51.7 °F 29.88 in West 3.0 mph 7.0 mph 71 % 0.00 in 11 W/m2
21:15 61.2 °F 52.1 °F 29.88 in West 2.0 mph 6.0 mph 72 % 0.00 in 11 W/m2
21:20 61.0 °F 51.9 °F 29.88 in West 1.0 mph 4.0 mph 72 % 0.00 in 7 W/m2
21:25 60.6 °F 51.9 °F 29.89 in West 1.0 mph 2.0 mph 73 % 0.00 in 0 W/m2
21:30 60.3 °F 51.9 °F 29.89 in Calm   2.0 mph 74 % 0.00 in 0 W/m2
21:35 60.1 °F 52.1 °F 29.89 in Calm   3.0 mph 75 % 0.00 in 0 W/m2
21:40 59.7 °F 52.1 °F 29.89 in Calm   3.0 mph 76 % 0.00 in 0 W/m2
21:45 59.4 °F 51.8 °F 29.89 in Calm   4.0 mph 76 % 0.00 in 0 W/m2
21:50 59.2 °F 52.0 °F 29.89 in Calm   4.0 mph 77 % 0.00 in 0 W/m2
21:55 58.8 °F 51.6 °F 29.89 in West 1.0 mph 5.0 mph 77 % 0.00 in 0 W/m2
22:00 58.5 °F 51.6 °F 29.90 in West 2.0 mph 5.0 mph 78 % 0.00 in 0 W/m2
22:05 58.3 °F 51.8 °F 29.90 in West 3.0 mph 5.0 mph 79 % 0.00 in 0 W/m2
22:10 57.9 °F 51.4 °F 29.90 in West 4.0 mph 6.0 mph 79 % 0.00 in 0 W/m2
22:16 57.6 °F 51.1 °F 29.90 in West 4.0 mph 6.0 mph 79 % 0.00 in 0 W/m2
22:21 57.4 °F 51.3 °F 29.90 in West 3.0 mph 6.0 mph 80 % 0.00 in 0 W/m2
22:26 56.8 °F 50.7 °F 29.91 in West 3.0 mph 5.0 mph 80 % 0.00 in 0 W/m2
22:31 56.7 °F 50.9 °F 29.90 in West 2.0 mph 5.0 mph 81 % 0.00 in 0 W/m2
22:36 56.3 °F 50.5 °F 29.91 in West 2.0 mph 5.0 mph 81 % 0.00 in 0 W/m2
22:41 55.9 °F 50.2 °F 29.91 in West 1.0 mph 4.0 mph 81 % 0.00 in 0 W/m2
22:46 55.8 °F 50.0 °F 29.91 in Calm   4.0 mph 81 % 0.00 in 0 W/m2
22:51 55.6 °F 49.8 °F 29.91 in Calm   1.0 mph 81 % 0.00 in 0 W/m2
22:53 55.6 °F 49.8 °F 29.91 in Calm   1.0 mph 81 % 0.00 in 0 W/m2
22:58 55.2 °F 49.5 °F 29.91 in Calm   1.0 mph 81 % 0.00 in 0 W/m2
23:03 55.0 °F 49.3 °F 29.91 in Calm   1.0 mph 81 % 0.00 in 0 W/m2
23:08 55.0 °F 49.6 °F 29.91 in Calm   2.0 mph 82 % 0.00 in 0 W/m2
23:13 55.2 °F 49.5 °F 29.91 in West 1.0 mph 6.0 mph 81 % 0.00 in 0 W/m2
23:18 55.6 °F 49.5 °F 29.91 in West 3.0 mph 7.0 mph 80 % 0.00 in 0 W/m2
23:23 55.6 °F 49.2 °F 29.91 in WSW 3.0 mph 7.0 mph 79 % 0.00 in 0 W/m2
23:28 55.6 °F 49.2 °F 29.91 in WSW 3.0 mph 6.0 mph 79 % 0.00 in 0 W/m2
23:33 55.6 °F 49.2 °F 29.91 in WSW 3.0 mph 6.0 mph 79 % 0.00 in 0 W/m2
23:38 55.4 °F 49.0 °F 29.92 in West 4.0 mph 6.0 mph 79 % 0.00 in 0 W/m2
23:43 55.2 °F 48.5 °F 29.91 in West 4.0 mph 6.0 mph 78 % 0.00 in 0 W/m2
23:48 55.2 °F 48.8 °F 29.92 in West 3.0 mph 6.0 mph 79 % 0.00 in 0 W/m2
23:53 55.0 °F 48.6 °F 29.92 in West 2.0 mph 5.0 mph 79 % 0.00 in 0 W/m2
23:58 54.9 °F 48.5 °F 29.92 in West 1.0 mph 4.0 mph 79 % 0.00 in 0 W/m2
Delerius-Weather
Compliments of Weather Underground - 2.25 mb

Data updates at regular intervals.